Hornsby Bend, Texas
Current Conditions -  °F | °C
As of 4:53 AM on Wednesday 26 Nov 2014 (Local Time) from KAUS Reporting Station
Clear Clear  
Wind Chill: 36°   Ceiling: Unl
Heat Index: 42°   Visibility: 10mi
Dew Point: 34°   Wind: 12mph
Humidity: 73%   Direction: 200°SSW
Pressure: 30.18"   Gusts: NA
Location:  30.2291°N, 97.5973°W
Report Text: KAUS 261053Z 20010KT 10SM CLR 06/01 A3018 RMK AO2 SLP220 T00560011
Loading
Personal Weather Stations






























Interactive Weather Map New forecast layout! Learn more

10-Day Weather Forecast

Advertisements
Track Severe Weather on mobile